sensor_id;sensor_type;location;lat;lon;timestamp;pressure;altitude;pressure_sealevel;temperature;humidity
74529;BME280;63009;52.584;5.932;2022-12-17T00:00:40;102374.53;;;-0.81;96.97
74529;BME280;63009;52.584;5.932;2022-12-17T00:03:24;102380.66;;;-0.74;96.97
74529;BME280;63009;52.584;5.932;2022-12-17T00:06:08;102376.31;;;-0.75;96.24
74529;BME280;63009;52.584;5.932;2022-12-17T00:08:59;102397.94;;;-0.76;95.52
74529;BME280;63009;52.584;5.932;2022-12-17T00:11:43;102395.19;;;-0.85;96.36
74529;BME280;63009;52.584;5.932;2022-12-17T00:14:27;102387.53;;;-0.78;96.55
74529;BME280;63009;52.584;5.932;2022-12-17T00:17:11;102370.06;;;-0.91;95.82
74529;BME280;63009;52.584;5.932;2022-12-17T00:19:55;102384.81;;;-0.87;96.06
74529;BME280;63009;52.584;5.932;2022-12-17T00:22:39;102386.53;;;-0.87;96.32
74529;BME280;63009;52.584;5.932;2022-12-17T00:25:22;102393.53;;;-0.82;96.30
74529;BME280;63009;52.584;5.932;2022-12-17T00:28:11;102391.72;;;-0.87;96.44
74529;BME280;63009;52.584;5.932;2022-12-17T00:30:55;102389.94;;;-0.92;96.96
74529;BME280;63009;52.584;5.932;2022-12-17T00:33:39;102381.28;;;-0.94;96.98
74529;BME280;63009;52.584;5.932;2022-12-17T00:36:23;102386.50;;;-0.91;96.50
74529;BME280;63009;52.584;5.932;2022-12-17T00:39:07;102389.91;;;-0.95;96.81
74529;BME280;63009;52.584;5.932;2022-12-17T00:41:51;102391.63;;;-0.95;97.32
74529;BME280;63009;52.584;5.932;2022-12-17T00:44:35;102398.66;;;-0.85;97.33
74529;BME280;63009;52.584;5.932;2022-12-17T00:47:19;102400.47;;;-0.82;96.60
74529;BME280;63009;52.584;5.932;2022-12-17T00:50:03;102403.06;;;-0.81;96.27
74529;BME280;63009;52.584;5.932;2022-12-17T00:52:48;102392.59;;;-0.87;96.64
74529;BME280;63009;52.584;5.932;2022-12-17T00:55:34;102402.09;;;-0.87;96.53
74529;BME280;63009;52.584;5.932;2022-12-17T00:58:18;102400.34;;;-0.90;97.12
74529;BME280;63009;52.584;5.932;2022-12-17T01:01:02;102413.34;;;-0.87;96.81
74529;BME280;63009;52.584;5.932;2022-12-17T01:03:46;102409.06;;;-0.85;96.78
74529;BME280;63009;52.584;5.932;2022-12-17T01:06:30;102409.09;;;-0.83;96.11
74529;BME280;63009;52.584;5.932;2022-12-17T01:09:13;102416.09;;;-0.78;95.51
74529;BME280;63009;52.584;5.932;2022-12-17T01:11:57;102402.91;;;-0.92;96.63
74529;BME280;63009;52.584;5.932;2022-12-17T01:14:41;102409.03;;;-0.86;95.88
74529;BME280;63009;52.584;5.932;2022-12-17T01:17:25;102421.22;;;-0.84;95.76
74529;BME280;63009;52.584;5.932;2022-12-17T01:20:09;102419.41;;;-0.86;95.81
74529;BME280;63009;52.584;5.932;2022-12-17T01:22:53;102428.06;;;-0.87;96.27
74529;BME280;63009;52.584;5.932;2022-12-17T01:25:37;102424.53;;;-0.91;96.09
74529;BME280;63009;52.584;5.932;2022-12-17T01:28:24;102436.72;;;-0.85;96.51
74529;BME280;63009;52.584;5.932;2022-12-17T01:31:09;102435.84;;;-0.86;97.09
74529;BME280;63009;52.584;5.932;2022-12-17T01:33:53;102449.75;;;-0.84;96.85
74529;BME280;63009;52.584;5.932;2022-12-17T01:36:37;102441.16;;;-0.80;96.89
74529;BME280;63009;52.584;5.932;2022-12-17T01:39:21;102443.75;;;-0.78;95.72
74529;BME280;63009;52.584;5.932;2022-12-17T01:42:10;102430.81;;;-0.77;96.76
74529;BME280;63009;52.584;5.932;2022-12-17T01:44:54;102433.38;;;-0.78;96.76
74529;BME280;63009;52.584;5.932;2022-12-17T01:47:58;102444.66;;;-0.76;96.60
74529;BME280;63009;52.584;5.932;2022-12-17T01:50:49;102444.66;;;-0.76;96.50
74529;BME280;63009;52.584;5.932;2022-12-17T01:53:42;102441.13;;;-0.83;96.57
74529;BME280;63009;52.584;5.932;2022-12-17T01:56:27;102449.00;;;-0.75;96.34
74529;BME280;63009;52.584;5.932;2022-12-17T01:59:11;102444.63;;;-0.79;97.22
74529;BME280;63009;52.584;5.932;2022-12-17T02:01:55;102456.72;;;-0.81;96.60
74529;BME280;63009;52.584;5.932;2022-12-17T02:04:40;102452.28;;;-0.87;96.80
74529;BME280;63009;52.584;5.932;2022-12-17T02:10:38;102463.50;;;-0.88;96.44
74529;BME280;63009;52.584;5.932;2022-12-17T02:13:31;102459.22;;;-0.86;96.77
74529;BME280;63009;52.584;5.932;2022-12-17T02:16:24;102445.34;;;-0.90;96.32
74529;BME280;63009;52.584;5.932;2022-12-17T02:22:55;102450.56;;;-0.85;96.50
74529;BME280;63009;52.584;5.932;2022-12-17T02:26:09;102467.84;;;-0.88;96.45
74529;BME280;63009;52.584;5.932;2022-12-17T02:28:56;102466.25;;;-0.80;97.45
74529;BME280;63009;52.584;5.932;2022-12-17T02:31:43;102469.59;;;-0.86;96.84
74529;BME280;63009;52.584;5.932;2022-12-17T02:34:27;102464.34;;;-0.91;97.00
74529;BME280;63009;52.584;5.932;2022-12-17T02:37:11;102465.19;;;-0.92;97.25
74529;BME280;63009;52.584;5.932;2022-12-17T02:39:55;102458.22;;;-0.96;97.16
74529;BME280;63009;52.584;5.932;2022-12-17T02:42:41;102460.16;;;-0.82;97.30
74529;BME280;63009;52.584;5.932;2022-12-17T02:45:25;102463.50;;;-0.88;96.83
74529;BME280;63009;52.584;5.932;2022-12-17T02:48:10;102472.97;;;-0.92;96.87
74529;BME280;63009;52.584;5.932;2022-12-17T02:50:55;102464.19;;;-1.01;97.29
74529;BME280;63009;52.584;5.932;2022-12-17T02:53:44;102464.13;;;-1.06;96.72
74529;BME280;63009;52.584;5.932;2022-12-17T02:56:28;102463.25;;;-1.05;97.08
74529;BME280;63009;52.584;5.932;2022-12-17T02:59:12;102465.91;;;-1.02;97.05
74529;BME280;63009;52.584;5.932;2022-12-17T03:01:56;102476.31;;;-0.99;96.74
74529;BME280;63009;52.584;5.932;2022-12-17T03:04:40;102474.72;;;-0.91;95.73
74529;BME280;63009;52.584;5.932;2022-12-17T03:07:24;102473.03;;;-0.88;96.13
74529;BME280;63009;52.584;5.932;2022-12-17T03:10:08;102464.31;;;-0.94;96.13
74529;BME280;63009;52.584;5.932;2022-12-17T03:12:52;102474.66;;;-0.97;96.13
74529;BME280;63009;52.584;5.932;2022-12-17T03:15:36;102492.03;;;-0.90;96.28
74529;BME280;63009;52.584;5.932;2022-12-17T03:18:20;102488.63;;;-0.87;96.35
74529;BME280;63009;52.584;5.932;2022-12-17T03:21:04;102489.50;;;-0.86;95.91
74529;BME280;63009;52.584;5.932;2022-12-17T03:23:48;102492.09;;;-0.86;95.27
74529;BME280;63009;52.584;5.932;2022-12-17T03:26:32;102493.91;;;-0.81;95.41
74529;BME280;63009;52.584;5.932;2022-12-17T03:29:16;102486.88;;;-0.86;94.99
74529;BME280;63009;52.584;5.932;2022-12-17T03:31:59;102497.34;;;-0.83;95.16
74529;BME280;63009;52.584;5.932;2022-12-17T03:35:03;102483.38;;;-0.90;94.26
74529;BME280;63009;52.584;5.932;2022-12-17T03:37:47;102493.88;;;-0.84;94.61
74529;BME280;63009;52.584;5.932;2022-12-17T03:40:31;102488.63;;;-0.87;94.75
74529;BME280;63009;52.584;5.932;2022-12-17T03:43:15;102491.31;;;-0.81;94.70
74529;BME280;63009;52.584;5.932;2022-12-17T03:45:59;102483.38;;;-0.90;94.83
74529;BME280;63009;52.584;5.932;2022-12-17T03:48:43;102499.78;;;-0.93;95.54
74529;BME280;63009;52.584;5.932;2022-12-17T03:51:27;102483.38;;;-0.92;95.55
74529;BME280;63009;52.584;5.932;2022-12-17T03:54:11;102491.19;;;-0.88;95.24
74529;BME280;63009;52.584;5.932;2022-12-17T03:56:55;102496.41;;;-0.85;95.47
74529;BME280;63009;52.584;5.932;2022-12-17T03:59:39;102497.25;;;-0.88;94.94
74529;BME280;63009;52.584;5.932;2022-12-17T04:02:23;102502.47;;;-0.85;94.82
74529;BME280;63009;52.584;5.932;2022-12-17T04:05:07;102497.19;;;-0.93;95.82
74529;BME280;63009;52.584;5.932;2022-12-17T04:07:51;102495.41;;;-0.97;95.99
74529;BME280;63009;52.584;5.932;2022-12-17T04:10:35;102502.41;;;-0.91;94.92
74529;BME280;63009;52.584;5.932;2022-12-17T04:13:19;102506.66;;;-0.96;95.06
74529;BME280;63009;52.584;5.932;2022-12-17T04:16:03;102511.03;;;-0.94;95.25
74529;BME280;63009;52.584;5.932;2022-12-17T04:18:47;102506.69;;;-0.93;95.25
74529;BME280;63009;52.584;5.932;2022-12-17T04:21:31;102487.56;;;-1.00;94.80
74529;BME280;63009;52.584;5.932;2022-12-17T04:24:15;102498.81;;;-0.99;95.33
74529;BME280;63009;52.584;5.932;2022-12-17T04:26:58;102516.09;;;-1.00;95.17
74529;BME280;63009;52.584;5.932;2022-12-17T04:29:42;102512.66;;;-0.99;95.58
74529;BME280;63009;52.584;5.932;2022-12-17T04:32:26;102497.88;;;-1.03;94.83
74529;BME280;63009;52.584;5.932;2022-12-17T04:35:10;102504.88;;;-0.99;95.27
74529;BME280;63009;52.584;5.932;2022-12-17T04:37:54;102496.97;;;-1.06;95.67
74529;BME280;63009;52.584;5.932;2022-12-17T04:40:39;102514.34;;;-1.01;94.87
74529;BME280;63009;52.584;5.932;2022-12-17T04:43:22;102521.19;;;-1.07;95.17
74529;BME280;63009;52.584;5.932;2022-12-17T04:46:06;102511.66;;;-1.07;94.58
74529;BME280;63009;52.584;5.932;2022-12-17T04:48:50;102527.25;;;-1.05;94.89
74529;BME280;63009;52.584;5.932;2022-12-17T04:51:34;102528.09;;;-1.08;94.31
74529;BME280;63009;52.584;5.932;2022-12-17T04:54:18;102522.06;;;-1.05;94.39
74529;BME280;63009;52.584;5.932;2022-12-17T04:57:02;102521.19;;;-1.06;94.93
74529;BME280;63009;52.584;5.932;2022-12-17T04:59:46;102521.13;;;-1.10;94.88
74529;BME280;63009;52.584;5.932;2022-12-17T05:02:30;102526.41;;;-1.04;94.54
74529;BME280;63009;52.584;5.932;2022-12-17T05:05:14;102528.97;;;-1.06;94.23
74529;BME280;63009;52.584;5.932;2022-12-17T05:07:59;102528.03;;;-1.11;94.00
74529;BME280;63009;52.584;5.932;2022-12-17T05:10:43;102527.97;;;-1.14;94.13
74529;BME280;63009;52.584;5.932;2022-12-17T05:13:27;102524.34;;;-1.25;95.09
74529;BME280;63009;52.584;5.932;2022-12-17T05:16:12;102543.53;;;-1.14;94.57
74529;BME280;63009;52.584;5.932;2022-12-17T05:18:56;102522.84;;;-1.11;94.43
74529;BME280;63009;52.584;5.932;2022-12-17T05:21:40;102530.44;;;-1.22;94.26
74529;BME280;63009;52.584;5.932;2022-12-17T05:24:24;102533.06;;;-1.20;94.42
74529;BME280;63009;52.584;5.932;2022-12-17T05:27:08;102532.25;;;-1.16;94.37
74529;BME280;63009;52.584;5.932;2022-12-17T05:29:52;102527.03;;;-1.19;93.80
74529;BME280;63009;52.584;5.932;2022-12-17T05:32:36;102526.94;;;-1.25;94.58
74529;BME280;63009;52.584;5.932;2022-12-17T05:35:20;102532.03;;;-1.30;94.72
74529;BME280;63009;52.584;5.932;2022-12-17T05:38:06;102525.06;;;-1.32;94.76
74529;BME280;63009;52.584;5.932;2022-12-17T05:40:51;102535.41;;;-1.34;94.71
74529;BME280;63009;52.584;5.932;2022-12-17T05:43:35;102521.44;;;-1.42;95.03
74529;BME280;63009;52.584;5.932;2022-12-17T05:46:19;102534.44;;;-1.40;94.99
74529;BME280;63009;52.584;5.932;2022-12-17T05:49:03;102549.09;;;-1.41;95.47
74529;BME280;63009;52.584;5.932;2022-12-17T05:51:51;102534.28;;;-1.48;95.31
74529;BME280;63009;52.584;5.932;2022-12-17T05:54:35;102555.13;;;-1.43;95.61
74529;BME280;63009;52.584;5.932;2022-12-17T05:57:19;102536.03;;;-1.47;96.14
74529;BME280;63009;52.584;5.932;2022-12-17T06:00:03;102542.16;;;-1.43;95.22
74529;BME280;63009;52.584;5.932;2022-12-17T06:02:47;102535.16;;;-1.49;95.71
74529;BME280;63009;52.584;5.932;2022-12-17T06:05:31;102539.50;;;-1.46;95.85
74529;BME280;63009;52.584;5.932;2022-12-17T06:08:15;102543.00;;;-1.44;95.61
74529;BME280;63009;52.584;5.932;2022-12-17T06:10:59;102550.75;;;-1.46;95.65
74529;BME280;63009;52.584;5.932;2022-12-17T06:13:43;102536.91;;;-1.46;95.01
74529;BME280;63009;52.584;5.932;2022-12-17T06:16:27;102537.66;;;-1.54;95.27
74529;BME280;63009;52.584;5.932;2022-12-17T06:19:11;102546.28;;;-1.55;95.73
74529;BME280;63009;52.584;5.932;2022-12-17T06:21:55;102542.66;;;-1.63;95.18
74529;BME280;63009;52.584;5.932;2022-12-17T06:24:39;102541.78;;;-1.63;95.05
74529;BME280;63009;52.584;5.932;2022-12-17T06:27:23;102552.16;;;-1.63;95.41
74529;BME280;63009;52.584;5.932;2022-12-17T06:30:08;102554.72;;;-1.65;96.02
74529;BME280;63009;52.584;5.932;2022-12-17T06:33:05;102545.19;;;-1.66;95.87
74529;BME280;63009;52.584;5.932;2022-12-17T06:35:51;102564.25;;;-1.64;95.35
74529;BME280;63009;52.584;5.932;2022-12-17T06:38:35;102556.34;;;-1.70;96.89
74529;BME280;63009;52.584;5.932;2022-12-17T06:41:19;102554.59;;;-1.71;95.88
74529;BME280;63009;52.584;5.932;2022-12-17T06:44:03;102553.72;;;-1.71;96.34
74529;BME280;63009;52.584;5.932;2022-12-17T06:46:47;102567.50;;;-1.74;95.71
74529;BME280;63009;52.584;5.932;2022-12-17T06:49:31;102573.47;;;-1.78;96.14
74529;BME280;63009;52.584;5.932;2022-12-17T06:52:15;102574.31;;;-1.79;96.58
74529;BME280;63009;52.584;5.932;2022-12-17T06:54:59;102563.88;;;-1.82;95.82
74529;BME280;63009;52.584;5.932;2022-12-17T06:57:44;102576.03;;;-1.80;96.42
74529;BME280;63009;52.584;5.932;2022-12-17T07:00:28;102567.19;;;-1.89;95.69
74529;BME280;63009;52.584;5.932;2022-12-17T07:03:12;102573.28;;;-1.87;96.07
74529;BME280;63009;52.584;5.932;2022-12-17T07:05:59;102583.56;;;-1.90;96.60
74529;BME280;63009;52.584;5.932;2022-12-17T07:08:43;102579.22;;;-1.93;96.23
74529;BME280;63009;52.584;5.932;2022-12-17T07:11:26;102587.69;;;-2.00;95.87
74529;BME280;63009;52.584;5.932;2022-12-17T07:14:10;102601.03;;;-1.82;96.83
74529;BME280;63009;52.584;5.932;2022-12-17T07:16:54;102593.00;;;-1.94;96.27
74529;BME280;63009;52.584;5.932;2022-12-17T07:19:38;102610.28;;;-1.94;97.13
74529;BME280;63009;52.584;5.932;2022-12-17T07:22:22;102590.28;;;-1.98;97.12
74529;BME280;63009;52.584;5.932;2022-12-17T07:25:06;102598.19;;;-1.94;96.47
74529;BME280;63009;52.584;5.932;2022-12-17T07:27:54;102596.41;;;-1.96;96.69
74529;BME280;63009;52.584;5.932;2022-12-17T07:30:38;102596.41;;;-1.96;96.49
74529;BME280;63009;52.584;5.932;2022-12-17T07:33:39;102623.25;;;-1.93;97.31
74529;BME280;63009;52.584;5.932;2022-12-17T07:36:23;102618.78;;;-1.98;97.35
74529;BME280;63009;52.584;5.932;2022-12-17T07:39:06;102617.84;;;-2.03;96.92
74529;BME280;63009;52.584;5.932;2022-12-17T07:41:50;102627.44;;;-1.98;97.27
74529;BME280;63009;52.584;5.932;2022-12-17T07:44:34;102631.75;;;-1.98;97.03
74529;BME280;63009;52.584;5.932;2022-12-17T07:47:18;102636.00;;;-2.02;96.92
74529;BME280;63009;52.584;5.932;2022-12-17T07:50:10;102631.06;;;-1.91;97.17
74529;BME280;63009;52.584;5.932;2022-12-17T07:53:01;102630.34;;;-1.84;96.30
74529;BME280;63009;52.584;5.932;2022-12-17T07:55:45;102626.78;;;-1.89;96.40
74529;BME280;63009;52.584;5.932;2022-12-17T07:58:33;102640.56;;;-1.90;96.33
74529;BME280;63009;52.584;5.932;2022-12-17T08:01:17;102649.19;;;-1.91;96.22
74529;BME280;63009;52.584;5.932;2022-12-17T08:04:08;102647.41;;;-1.94;96.58
74529;BME280;63009;52.584;5.932;2022-12-17T08:06:52;102643.84;;;-1.97;96.03
74529;BME280;63009;52.584;5.932;2022-12-17T08:09:36;102660.34;;;-1.95;96.65
74529;BME280;63009;52.584;5.932;2022-12-17T08:12:20;102656.78;;;-1.99;97.50
74529;BME280;63009;52.584;5.932;2022-12-17T08:15:08;102664.69;;;-1.94;97.31
74529;BME280;63009;52.584;5.932;2022-12-17T08:17:58;102668.19;;;-1.92;96.76
74529;BME280;63009;52.584;5.932;2022-12-17T08:20:42;102672.53;;;-1.90;96.91
74529;BME280;63009;52.584;5.932;2022-12-17T08:23:26;102673.41;;;-1.89;96.62
74529;BME280;63009;52.584;5.932;2022-12-17T08:26:11;102679.50;;;-1.87;96.81
74529;BME280;63009;52.584;5.932;2022-12-17T08:28:54;102677.97;;;-1.79;96.92
74529;BME280;63009;52.584;5.932;2022-12-17T08:31:38;102690.00;;;-1.83;96.28
74529;BME280;63009;52.584;5.932;2022-12-17T08:34:22;102686.50;;;-1.83;96.98
74529;BME280;63009;52.584;5.932;2022-12-17T08:37:06;102691.75;;;-1.82;96.78
74529;BME280;63009;52.584;5.932;2022-12-17T08:39:50;102685.78;;;-1.77;96.58
74529;BME280;63009;52.584;5.932;2022-12-17T08:42:34;102687.50;;;-1.78;96.69
74529;BME280;63009;52.584;5.932;2022-12-17T08:45:18;102685.75;;;-1.79;96.54
74529;BME280;63009;52.584;5.932;2022-12-17T08:48:06;102683.13;;;-1.81;96.61
74529;BME280;63009;52.584;5.932;2022-12-17T08:50:50;102681.28;;;-1.85;96.45
74529;BME280;63009;52.584;5.932;2022-12-17T08:53:34;102686.56;;;-1.82;96.12
74529;BME280;63009;52.584;5.932;2022-12-17T08:56:18;102681.38;;;-1.82;96.47
74529;BME280;63009;52.584;5.932;2022-12-17T08:59:02;102696.88;;;-1.83;96.02
74529;BME280;63009;52.584;5.932;2022-12-17T09:01:46;102684.66;;;-1.89;96.34
74529;BME280;63009;52.584;5.932;2022-12-17T09:04:30;102702.81;;;-1.87;96.61
74529;BME280;63009;52.584;5.932;2022-12-17T09:07:14;102696.09;;;-1.81;96.21
74529;BME280;63009;52.584;5.932;2022-12-17T09:09:58;102682.28;;;-1.80;96.18
74529;BME280;63009;52.584;5.932;2022-12-17T09:12:42;102675.44;;;-1.76;95.78
74529;BME280;63009;52.584;5.932;2022-12-17T09:15:26;102686.91;;;-1.65;96.09
74529;BME280;63009;52.584;5.932;2022-12-17T09:18:09;102698.28;;;-1.58;95.61
74529;BME280;63009;52.584;5.932;2022-12-17T09:20:54;102695.75;;;-1.55;96.16
74529;BME280;63009;52.584;5.932;2022-12-17T09:23:38;102698.41;;;-1.54;95.50
74529;BME280;63009;52.584;5.932;2022-12-17T09:26:21;102695.03;;;-1.48;95.04
74529;BME280;63009;52.584;5.932;2022-12-17T09:29:05;102716.03;;;-1.37;95.61
74529;BME280;63009;52.584;5.932;2022-12-17T09:31:49;102715.25;;;-1.33;95.47
74529;BME280;63009;52.584;5.932;2022-12-17T09:34:33;102710.09;;;-1.30;95.20
74529;BME280;63009;52.584;5.932;2022-12-17T09:37:17;102715.28;;;-1.30;94.09
74529;BME280;63009;52.584;5.932;2022-12-17T09:40:02;102726.56;;;-1.28;94.40
74529;BME280;63009;52.584;5.932;2022-12-17T09:48:30;102720.75;;;-1.16;94.60
74529;BME280;63009;52.584;5.932;2022-12-17T09:51:26;102719.91;;;-1.15;94.55
74529;BME280;63009;52.584;5.932;2022-12-17T09:54:26;102719.09;;;-1.13;94.71
74529;BME280;63009;52.584;5.932;2022-12-17T09:57:13;102733.94;;;-1.07;94.25
74529;BME280;63009;52.584;5.932;2022-12-17T10:00:19;102737.41;;;-1.07;93.48
74529;BME280;63009;52.584;5.932;2022-12-17T10:03:13;102752.16;;;-1.03;93.44
74529;BME280;63009;52.584;5.932;2022-12-17T10:06:01;102742.56;;;-1.08;93.90
74529;BME280;63009;52.584;5.932;2022-12-17T10:08:49;102739.25;;;-1.00;93.84
74529;BME280;63009;52.584;5.932;2022-12-17T10:11:35;102741.13;;;-0.94;93.60
74529;BME280;63009;52.584;5.932;2022-12-17T10:14:22;102741.94;;;-0.97;93.00
74529;BME280;63009;52.584;5.932;2022-12-17T10:17:15;102722.03;;;-0.96;93.61
74529;BME280;63009;52.584;5.932;2022-12-17T10:20:00;102721.06;;;-1.01;93.77
74529;BME280;63009;52.584;5.932;2022-12-17T10:22:49;102720.13;;;-1.05;94.13
74529;BME280;63009;52.584;5.932;2022-12-17T10:25:34;102720.28;;;-0.97;93.46
74529;BME280;63009;52.584;5.932;2022-12-17T10:28:21;102717.75;;;-0.94;94.18
74529;BME280;63009;52.584;5.932;2022-12-17T10:31:09;102724.69;;;-0.93;92.80
74529;BME280;63009;52.584;5.932;2022-12-17T10:33:57;102700.31;;;-1.00;93.82
74529;BME280;63009;52.584;5.932;2022-12-17T10:36:51;102714.41;;;-0.87;93.29
74529;BME280;63009;52.584;5.932;2022-12-17T10:39:35;102708.50;;;-0.80;93.11
74529;BME280;63009;52.584;5.932;2022-12-17T10:45:20;102710.59;;;-0.59;93.10
74529;BME280;63009;52.584;5.932;2022-12-17T10:48:21;102703.69;;;-0.57;92.90
74529;BME280;63009;52.584;5.932;2022-12-17T10:54:25;102726.56;;;-0.38;92.45
74529;BME280;63009;52.584;5.932;2022-12-17T10:57:32;102732.22;;;-0.10;92.17
74529;BME280;63009;52.584;5.932;2022-12-17T11:03:01;102736.00;;;0.12;89.66
74529;BME280;63009;52.584;5.932;2022-12-17T11:05:48;102735.97;;;0.10;90.20
74529;BME280;63009;52.584;5.932;2022-12-17T11:08:34;102741.41;;;0.25;89.60
74529;BME280;63009;52.584;5.932;2022-12-17T11:11:18;102743.03;;;0.17;89.37
74529;BME280;63009;52.584;5.932;2022-12-17T11:14:04;102738.78;;;0.24;89.49
74529;BME280;63009;52.584;5.932;2022-12-17T11:16:53;102735.38;;;0.28;89.09
74529;BME280;63009;52.584;5.932;2022-12-17T11:19:55;102734.56;;;0.29;89.23
74529;BME280;63009;52.584;5.932;2022-12-17T11:22:48;102725.91;;;0.30;88.98
74529;BME280;63009;52.584;5.932;2022-12-17T11:25:41;102718.13;;;0.33;88.25
74529;BME280;63009;52.584;5.932;2022-12-17T11:28:28;102718.09;;;0.30;88.04
74529;BME280;63009;52.584;5.932;2022-12-17T11:37:23;102725.03;;;0.29;88.39
74529;BME280;63009;52.584;5.932;2022-12-17T11:40:20;102728.53;;;0.33;88.50
74529;BME280;63009;52.584;5.932;2022-12-17T11:43:26;102742.44;;;0.35;87.81
74529;BME280;63009;52.584;5.932;2022-12-17T11:46:15;102744.97;;;0.31;88.88
74529;BME280;63009;52.584;5.932;2022-12-17T11:52:08;102743.31;;;0.37;88.77
74529;BME280;63009;52.584;5.932;2022-12-17T11:55:14;102729.19;;;0.18;88.48
74529;BME280;63009;52.584;5.932;2022-12-17T11:58:06;102724.81;;;0.14;88.00
74529;BME280;63009;52.584;5.932;2022-12-17T12:04:09;102744.69;;;0.14;89.20
74529;BME280;63009;52.584;5.932;2022-12-17T12:10:18;102744.81;;;0.21;88.75
74529;BME280;63009;52.584;5.932;2022-12-17T12:16:21;102745.66;;;0.19;87.87
74529;BME280;63009;52.584;5.932;2022-12-17T12:22:05;102741.34;;;0.21;87.97
74529;BME280;63009;52.584;5.932;2022-12-17T12:28:12;102729.16;;;0.15;88.75
74529;BME280;63009;52.584;5.932;2022-12-17T12:34:18;102725.72;;;0.18;89.22
74529;BME280;63009;52.584;5.932;2022-12-17T12:37:05;102730.06;;;0.20;89.10
74529;BME280;63009;52.584;5.932;2022-12-17T12:43:25;102729.19;;;0.18;89.31
74529;BME280;63009;52.584;5.932;2022-12-17T12:46:15;102732.53;;;0.11;88.52
74529;BME280;63009;52.584;5.932;2022-12-17T12:49:15;102719.44;;;0.05;88.80
74529;BME280;63009;52.584;5.932;2022-12-17T12:52:01;102722.06;;;0.07;89.03
74529;BME280;63009;52.584;5.932;2022-12-17T12:57:32;102715.09;;;0.03;89.53
74529;BME280;63009;52.584;5.932;2022-12-17T13:03:17;102713.25;;;-0.03;89.01
74529;BME280;63009;52.584;5.932;2022-12-17T13:06:02;102718.59;;;0.05;90.03
74529;BME280;63009;52.584;5.932;2022-12-17T13:08:28;102714.19;;;0.01;89.66
74529;BME280;63009;52.584;5.932;2022-12-17T13:10:53;102709.00;;;0.01;89.70
74529;BME280;63009;52.584;5.932;2022-12-17T13:13:40;102721.94;;;-0.01;89.25
74529;BME280;63009;52.584;5.932;2022-12-17T13:16:30;102718.38;;;-0.08;89.54
74529;BME280;63009;52.584;5.932;2022-12-17T13:19:33;102722.88;;;0.01;89.81
74529;BME280;63009;52.584;5.932;2022-12-17T13:24:45;102711.50;;;-0.04;89.48
74529;BME280;63009;52.584;5.932;2022-12-17T13:27:35;102714.94;;;-0.07;89.50
74529;BME280;63009;52.584;5.932;2022-12-17T13:33:17;102714.91;;;-0.08;89.81
74529;BME280;63009;52.584;5.932;2022-12-17T13:36:07;102707.06;;;-0.13;89.75
74529;BME280;63009;52.584;5.932;2022-12-17T13:38:57;102700.16;;;-0.11;89.89
74529;BME280;63009;52.584;5.932;2022-12-17T13:41:30;102696.53;;;-0.20;89.06
74529;BME280;63009;52.584;5.932;2022-12-17T13:44:00;102705.22;;;-0.18;89.98
74529;BME280;63009;52.584;5.932;2022-12-17T13:46:45;102701.78;;;-0.17;89.18
74529;BME280;63009;52.584;5.932;2022-12-17T13:49:26;102694.00;;;-0.16;89.41
74529;BME280;63009;52.584;5.932;2022-12-17T13:52:17;102698.28;;;-0.18;89.99
74529;BME280;63009;52.584;5.932;2022-12-17T13:54:43;102693.00;;;-0.25;90.03
74529;BME280;63009;52.584;5.932;2022-12-17T13:57:13;102706.88;;;-0.23;89.40
74529;BME280;63009;52.584;5.932;2022-12-17T13:59:39;102709.38;;;-0.30;89.48
74529;BME280;63009;52.584;5.932;2022-12-17T14:02:04;102698.06;;;-0.32;89.27
74529;BME280;63009;52.584;5.932;2022-12-17T14:04:30;102698.81;;;-0.40;89.23
74529;BME280;63009;52.584;5.932;2022-12-17T14:06:58;102703.16;;;-0.39;89.88
74529;BME280;63009;52.584;5.932;2022-12-17T14:09:29;102710.84;;;-0.44;89.77
74529;BME280;63009;52.584;5.932;2022-12-17T14:11:56;102705.59;;;-0.48;90.66
74529;BME280;63009;52.584;5.932;2022-12-17T14:14:42;102696.84;;;-0.55;89.90
74529;BME280;63009;52.584;5.932;2022-12-17T14:17:24;102724.56;;;-0.54;90.75
74529;BME280;63009;52.584;5.932;2022-12-17T14:19:59;102720.25;;;-0.52;90.53
74529;BME280;63009;52.584;5.932;2022-12-17T14:22:33;102728.88;;;-0.54;90.46
74529;BME280;63009;52.584;5.932;2022-12-17T14:25:00;102720.25;;;-0.53;90.32
74529;BME280;63009;52.584;5.932;2022-12-17T14:27:31;102722.69;;;-0.60;90.68
74529;BME280;63009;52.584;5.932;2022-12-17T14:29:57;102733.03;;;-0.64;91.26
74529;BME280;63009;52.584;5.932;2022-12-17T14:32:34;102725.22;;;-0.66;91.62
74529;BME280;63009;52.584;5.932;2022-12-17T14:35:00;102735.56;;;-0.67;91.06
74529;BME280;63009;52.584;5.932;2022-12-17T14:37:26;102737.13;;;-0.75;91.73
74529;BME280;63009;52.584;5.932;2022-12-17T14:39:57;102733.72;;;-0.73;91.71
74529;BME280;63009;52.584;5.932;2022-12-17T14:42:25;102730.22;;;-0.75;91.35
74529;BME280;63009;52.584;5.932;2022-12-17T14:44:52;102736.91;;;-0.86;91.51
74529;BME280;63009;52.584;5.932;2022-12-17T14:47:21;102749.13;;;-0.83;92.11
74529;BME280;63009;52.584;5.932;2022-12-17T14:49:59;102749.00;;;-0.88;92.31
74529;BME280;63009;52.584;5.932;2022-12-17T14:52:38;102766.22;;;-0.93;92.59
74529;BME280;63009;52.584;5.932;2022-12-17T14:58:20;102765.16;;;-1.01;91.95
74529;BME280;63009;52.584;5.932;2022-12-17T15:00:46;102761.59;;;-1.08;92.28
74529;BME280;63009;52.584;5.932;2022-12-17T15:03:17;102780.69;;;-1.04;91.86
74529;BME280;63009;52.584;5.932;2022-12-17T15:05:43;102760.78;;;-1.05;92.68
74529;BME280;63009;52.584;5.932;2022-12-17T15:08:10;102762.28;;;-1.16;92.57
74529;BME280;63009;52.584;5.932;2022-12-17T15:10:35;102762.31;;;-1.13;92.32
74529;BME280;63009;52.584;5.932;2022-12-17T15:13:01;102766.47;;;-1.23;93.08
74529;BME280;63009;52.584;5.932;2022-12-17T15:15:26;102751.72;;;-1.26;93.22
74529;BME280;63009;52.584;5.932;2022-12-17T15:17:51;102758.53;;;-1.29;92.94
74529;BME280;63009;52.584;5.932;2022-12-17T15:20:18;102769.81;;;-1.27;92.71
74529;BME280;63009;52.584;5.932;2022-12-17T15:22:44;102771.59;;;-1.26;93.25
74529;BME280;63009;52.584;5.932;2022-12-17T15:25:14;102780.13;;;-1.30;92.96